createdAt,value
2023-05-23T00:00:00.660Z,17.1
2023-05-23T00:01:00.612Z,17.1
2023-05-23T00:02:00.685Z,17.1
2023-05-23T00:03:00.705Z,17.1
2023-05-23T00:04:00.799Z,17.1
2023-05-23T00:05:00.615Z,17.1
2023-05-23T00:06:00.615Z,17.1
2023-05-23T00:07:00.609Z,17.1
2023-05-23T00:08:00.645Z,17.1
2023-05-23T00:09:00.624Z,17.1
2023-05-23T00:10:00.650Z,17.1
2023-05-23T00:11:00.655Z,17.1
2023-05-23T00:12:00.633Z,17.1
2023-05-23T00:13:00.642Z,17.1
2023-05-23T00:14:00.639Z,17
2023-05-23T00:15:00.630Z,17
2023-05-23T00:16:00.631Z,17
2023-05-23T00:17:00.689Z,17
2023-05-23T00:18:00.852Z,17
2023-05-23T00:19:00.691Z,17
2023-05-23T00:20:00.641Z,17
2023-05-23T00:21:00.910Z,17
2023-05-23T00:22:00.652Z,16.9
2023-05-23T00:23:00.637Z,16.9
2023-05-23T00:24:00.631Z,16.9
2023-05-23T00:25:00.642Z,16.9
2023-05-23T00:26:00.669Z,16.9
2023-05-23T00:27:00.642Z,16.9
2023-05-23T00:28:00.655Z,16.9
2023-05-23T00:29:00.650Z,16.9
2023-05-23T00:30:00.730Z,16.9
2023-05-23T00:31:00.692Z,16.9
2023-05-23T00:32:00.682Z,16.9
2023-05-23T00:33:00.745Z,16.9
2023-05-23T00:34:00.662Z,16.9
2023-05-23T00:35:00.661Z,16.9
2023-05-23T00:36:00.723Z,16.9
2023-05-23T00:37:00.665Z,16.9
2023-05-23T00:38:00.687Z,16.9
2023-05-23T00:39:00.653Z,16.9
2023-05-23T00:40:00.654Z,16.9
2023-05-23T00:41:00.663Z,16.9
2023-05-23T00:42:00.655Z,16.9
2023-05-23T00:43:00.661Z,16.9
2023-05-23T00:44:00.651Z,16.9
2023-05-23T00:45:00.681Z,16.9
2023-05-23T00:46:00.725Z,16.9
2023-05-23T00:47:00.677Z,16.9
2023-05-23T00:48:00.725Z,16.8
2023-05-23T00:49:00.684Z,16.8
2023-05-23T00:50:00.682Z,16.8
2023-05-23T00:51:00.720Z,16.8
2023-05-23T00:52:00.668Z,16.8
2023-05-23T00:53:00.674Z,16.8
2023-05-23T00:54:00.735Z,16.8
2023-05-23T00:55:00.682Z,16.7
2023-05-23T00:56:00.683Z,16.7
2023-05-23T00:57:00.681Z,16.6
2023-05-23T00:58:00.697Z,16.6
2023-05-23T00:59:00.695Z,16.6
2023-05-23T01:00:00.704Z,16.6
2023-05-23T01:01:00.676Z,16.6
2023-05-23T01:02:00.747Z,16.6
2023-05-23T01:03:00.726Z,16.6
2023-05-23T01:04:00.707Z,16.6
2023-05-23T01:05:00.702Z,16.6
2023-05-23T01:06:00.685Z,16.6
2023-05-23T01:07:00.703Z,16.6
2023-05-23T01:08:00.691Z,16.6
2023-05-23T01:09:00.683Z,16.7
2023-05-23T01:10:00.732Z,16.7
2023-05-23T01:11:00.685Z,16.7
2023-05-23T01:12:00.688Z,16.7
2023-05-23T01:13:00.691Z,16.7
2023-05-23T01:14:00.692Z,16.7
2023-05-23T01:15:00.735Z,16.7
2023-05-23T01:16:02.931Z,16.7
2023-05-23T01:17:00.695Z,16.7
2023-05-23T01:18:00.726Z,16.6
2023-05-23T01:19:00.723Z,16.7
2023-05-23T01:20:00.731Z,16.7
2023-05-23T01:21:00.699Z,16.6
2023-05-23T01:22:00.696Z,16.6
2023-05-23T01:23:00.696Z,16.7
2023-05-23T01:24:00.706Z,16.6
2023-05-23T01:25:00.751Z,16.6
2023-05-23T01:26:00.700Z,16.7
2023-05-23T01:27:00.706Z,16.7
2023-05-23T01:28:00.690Z,16.7
2023-05-23T01:29:00.744Z,16.7
2023-05-23T01:30:00.757Z,16.7
2023-05-23T01:31:00.726Z,16.7
2023-05-23T01:32:00.786Z,16.7
2023-05-23T01:33:00.777Z,16.7
2023-05-23T01:34:00.709Z,16.7
2023-05-23T01:35:00.651Z,16.7
2023-05-23T01:36:00.640Z,16.7
2023-05-23T01:37:00.597Z,16.7
2023-05-23T01:38:00.560Z,16.7
2023-05-23T01:39:00.538Z,16.7
2023-05-23T01:40:00.550Z,16.7
2023-05-23T01:41:00.491Z,16.7
2023-05-23T01:42:00.449Z,16.7
2023-05-23T01:43:00.442Z,16.7
2023-05-23T01:44:00.407Z,16.7
2023-05-23T01:45:00.368Z,16.7
2023-05-23T01:46:00.372Z,16.7
2023-05-23T01:47:00.357Z,16.7
2023-05-23T01:48:00.445Z,16.7
2023-05-23T01:49:00.363Z,16.6
2023-05-23T01:50:00.378Z,16.6
2023-05-23T01:51:00.340Z,16.6
2023-05-23T01:52:00.354Z,16.6
2023-05-23T01:53:00.346Z,16.6
2023-05-23T01:54:00.361Z,16.6
2023-05-23T01:55:00.360Z,16.6
2023-05-23T01:56:00.346Z,16.6
2023-05-23T01:57:00.352Z,16.6
2023-05-23T01:58:00.362Z,16.6
2023-05-23T01:59:00.356Z,16.6
2023-05-23T02:00:00.371Z,16.6
2023-05-23T02:01:02.180Z,16.6
2023-05-23T02:02:02.237Z,16.5
2023-05-23T02:03:02.239Z,16.5
2023-05-23T02:04:02.160Z,16.5
2023-05-23T02:05:02.175Z,16.5
2023-05-23T02:06:02.166Z,16.4
2023-05-23T02:07:02.166Z,16.4
2023-05-23T02:08:02.176Z,16.4
2023-05-23T02:09:02.173Z,16.4
2023-05-23T02:10:02.350Z,16.4
2023-05-23T02:11:02.163Z,16.4
2023-05-23T02:12:02.166Z,16.4
2023-05-23T02:13:02.160Z,16.4
2023-05-23T02:14:02.157Z,16.4
2023-05-23T02:15:02.187Z,16.4
2023-05-23T02:16:02.164Z,16.4
2023-05-23T02:17:02.250Z,16.4
2023-05-23T02:18:02.372Z,16.4
2023-05-23T02:19:02.267Z,16.4
2023-05-23T02:20:02.313Z,16.4
2023-05-23T02:21:02.186Z,16.4
2023-05-23T02:22:02.220Z,16.4
2023-05-23T02:23:02.169Z,16.4
2023-05-23T02:24:02.219Z,16.4
2023-05-23T02:25:02.199Z,16.4
2023-05-23T02:26:02.175Z,16.4
2023-05-23T02:27:02.202Z,16.4
2023-05-23T02:28:02.224Z,16.4
2023-05-23T02:29:02.224Z,16.3
2023-05-23T02:30:02.334Z,16.3
2023-05-23T02:31:02.240Z,16.3
2023-05-23T02:32:02.232Z,16.3
2023-05-23T02:33:02.195Z,16.2
2023-05-23T02:34:02.189Z,16.2
2023-05-23T02:35:02.208Z,16.2
2023-05-23T02:36:02.241Z,16.2
2023-05-23T02:37:02.190Z,16.2
2023-05-23T02:38:02.241Z,16.2
2023-05-23T02:39:02.189Z,16.2
2023-05-23T02:40:02.313Z,16.2
2023-05-23T02:41:02.207Z,16.2
2023-05-23T02:42:02.189Z,16.2
2023-05-23T02:43:02.220Z,16.2
2023-05-23T02:44:02.200Z,16.1
2023-05-23T02:45:02.236Z,16.1
2023-05-23T02:46:02.220Z,16.2
2023-05-23T02:47:02.208Z,16.2
2023-05-23T02:48:02.221Z,16.1
2023-05-23T02:49:02.240Z,16.1
2023-05-23T02:50:02.290Z,16.1
2023-05-23T02:51:02.216Z,16.1
2023-05-23T02:52:02.234Z,16.1
2023-05-23T02:53:02.227Z,16.1
2023-05-23T02:54:02.280Z,16.1
2023-05-23T02:55:02.231Z,16.1
2023-05-23T02:56:02.233Z,16.1
2023-05-23T02:57:02.219Z,16.1
2023-05-23T02:58:02.215Z,16.1
2023-05-23T02:59:02.228Z,16
2023-05-23T03:00:02.542Z,16
2023-05-23T03:01:02.230Z,16
2023-05-23T03:02:02.261Z,15.9
2023-05-23T03:03:02.315Z,15.9
2023-05-23T03:04:02.298Z,15.9
2023-05-23T03:05:02.365Z,15.9
2023-05-23T03:06:02.235Z,15.9
2023-05-23T03:07:02.967Z,15.9
2023-05-23T03:08:02.235Z,15.9
2023-05-23T03:09:02.229Z,15.9
2023-05-23T03:10:02.334Z,15.8
2023-05-23T03:11:02.242Z,15.8
2023-05-23T03:12:02.230Z,15.8
2023-05-23T03:13:02.221Z,15.8
2023-05-23T03:14:02.295Z,15.8
2023-05-23T03:15:02.316Z,15.8
2023-05-23T03:16:02.340Z,15.7
2023-05-23T03:17:02.249Z,15.7
2023-05-23T03:18:02.276Z,15.6
2023-05-23T03:19:02.311Z,15.6
2023-05-23T03:20:02.564Z,15.6
2023-05-23T03:21:02.312Z,15.6
2023-05-23T03:22:02.314Z,15.5
2023-05-23T03:23:02.252Z,15.4
2023-05-23T03:24:02.312Z,15.4
2023-05-23T03:25:02.348Z,15.4
2023-05-23T03:26:02.364Z,15.4
2023-05-23T03:27:02.516Z,15.3
2023-05-23T03:28:02.263Z,15.2
2023-05-23T03:29:02.252Z,15.2
2023-05-23T03:30:02.371Z,15.2
2023-05-23T03:31:02.252Z,15.1
2023-05-23T03:32:02.326Z,15.1
2023-05-23T03:33:02.345Z,15.1
2023-05-23T03:34:02.273Z,15.1
2023-05-23T03:35:02.247Z,15.1
2023-05-23T03:36:02.363Z,14.9
2023-05-23T03:37:02.335Z,14.9
2023-05-23T03:38:02.280Z,14.9
2023-05-23T03:39:02.277Z,14.9
2023-05-23T03:40:02.688Z,14.8
2023-05-23T03:41:02.253Z,14.8
2023-05-23T03:42:02.268Z,14.8
2023-05-23T03:43:02.255Z,14.8
2023-05-23T03:44:02.290Z,14.8
2023-05-23T03:45:02.288Z,14.8
2023-05-23T03:46:02.284Z,14.8
2023-05-23T03:47:02.262Z,14.8
2023-05-23T03:48:02.303Z,14.8
2023-05-23T03:49:02.299Z,14.7
2023-05-23T03:50:02.348Z,14.7
2023-05-23T03:51:02.272Z,14.7
2023-05-23T03:52:02.269Z,14.7
2023-05-23T03:53:02.289Z,14.7
2023-05-23T03:54:02.287Z,14.6
2023-05-23T03:55:02.284Z,14.7
2023-05-23T03:56:02.270Z,14.7
2023-05-23T03:57:02.278Z,14.7
2023-05-23T03:58:02.333Z,14.7
2023-05-23T03:59:02.282Z,14.8
2023-05-23T04:00:02.313Z,14.8
2023-05-23T04:01:02.372Z,14.8
2023-05-23T04:02:02.305Z,14.8
2023-05-23T04:03:02.400Z,14.8
2023-05-23T04:04:02.457Z,14.8
2023-05-23T04:05:02.277Z,14.8
2023-05-23T04:06:02.294Z,14.8
2023-05-23T04:07:02.316Z,14.8
2023-05-23T04:08:02.297Z,14.7
2023-05-23T04:09:02.270Z,14.7
2023-05-23T04:10:02.283Z,14.6
2023-05-23T04:11:02.297Z,14.6
2023-05-23T04:12:02.322Z,14.6
2023-05-23T04:13:02.328Z,14.7
2023-05-23T04:14:02.287Z,14.7
2023-05-23T04:15:02.380Z,14.7
2023-05-23T04:16:02.401Z,14.7
2023-05-23T04:17:02.299Z,14.7
2023-05-23T04:18:02.332Z,14.7
2023-05-23T04:19:04.189Z,14.7
2023-05-23T04:20:02.294Z,14.8
2023-05-23T04:21:02.285Z,14.8
2023-05-23T04:22:02.331Z,14.8
2023-05-23T04:23:02.335Z,14.8
2023-05-23T04:24:02.311Z,14.8
2023-05-23T04:25:02.305Z,14.8
2023-05-23T04:26:02.333Z,14.8
2023-05-23T04:27:02.317Z,14.8
2023-05-23T04:28:02.306Z,14.9
2023-05-23T04:29:02.302Z,14.9
2023-05-23T04:30:02.349Z,14.9
2023-05-23T04:31:02.368Z,14.9
2023-05-23T04:32:02.341Z,14.9
2023-05-23T04:33:02.355Z,14.9
2023-05-23T04:34:02.325Z,14.9
2023-05-23T04:35:02.332Z,14.9
2023-05-23T04:36:02.311Z,15
2023-05-23T04:37:02.317Z,15
2023-05-23T04:38:02.321Z,15.1
2023-05-23T04:39:02.330Z,15.1
2023-05-23T04:40:02.341Z,15.1
2023-05-23T04:41:02.329Z,15.2
2023-05-23T04:42:02.324Z,15.2
2023-05-23T04:43:02.325Z,15.2
2023-05-23T04:44:02.319Z,15.2
2023-05-23T04:45:02.471Z,15.3
2023-05-23T04:46:02.341Z,15.3
2023-05-23T04:47:02.423Z,15.4
2023-05-23T04:48:02.359Z,15.4
2023-05-23T04:49:02.361Z,15.4
2023-05-23T04:50:02.345Z,15.5
2023-05-23T04:51:02.376Z,15.6
2023-05-23T04:52:02.338Z,15.6
2023-05-23T04:53:02.344Z,15.6
2023-05-23T04:54:02.346Z,15.6
2023-05-23T04:55:02.362Z,15.6
2023-05-23T04:56:02.338Z,15.6
2023-05-23T04:57:02.337Z,15.6
2023-05-23T04:58:02.336Z,15.7
2023-05-23T04:59:02.344Z,15.8
2023-05-23T05:00:02.345Z,15.8
2023-05-23T05:01:02.382Z,15.8
2023-05-23T05:02:02.358Z,15.8
2023-05-23T05:03:02.404Z,15.8
2023-05-23T05:04:02.424Z,15.8
2023-05-23T05:05:02.344Z,15.9
2023-05-23T05:06:02.340Z,15.9
2023-05-23T05:07:02.362Z,15.9
2023-05-23T05:08:02.365Z,16
2023-05-23T05:09:02.388Z,16
2023-05-23T05:10:02.380Z,16.1
2023-05-23T05:11:02.348Z,16.1
2023-05-23T05:12:02.357Z,16.1
2023-05-23T05:13:02.347Z,16.1
2023-05-23T05:14:02.349Z,16.1
2023-05-23T05:15:02.353Z,16.1
2023-05-23T05:16:02.360Z,16.2
2023-05-23T05:17:02.400Z,16.2
2023-05-23T05:18:02.489Z,16.2
2023-05-23T05:19:02.371Z,16.2
2023-05-23T05:20:02.361Z,16.3
2023-05-23T05:21:02.373Z,16.3
2023-05-23T05:22:02.353Z,16.4
2023-05-23T05:23:02.388Z,16.4
2023-05-23T05:24:02.353Z,16.4
2023-05-23T05:25:02.380Z,16.5
2023-05-23T05:26:02.394Z,16.5
2023-05-23T05:27:02.361Z,16.5
2023-05-23T05:28:02.359Z,16.5
2023-05-23T05:29:02.383Z,16.6
2023-05-23T05:30:02.376Z,16.6
2023-05-23T05:31:02.413Z,16.6
2023-05-23T05:32:02.362Z,16.7
2023-05-23T05:33:02.409Z,16.7
2023-05-23T05:34:02.388Z,16.8
2023-05-23T05:35:02.402Z,16.8
2023-05-23T05:36:02.421Z,16.8
2023-05-23T05:37:02.422Z,16.9
2023-05-23T05:38:02.377Z,16.9
2023-05-23T05:39:02.394Z,17
2023-05-23T05:40:02.393Z,17.1
2023-05-23T05:41:02.381Z,17.1
2023-05-23T05:42:02.395Z,17.1
2023-05-23T05:43:02.407Z,17.2
2023-05-23T05:44:02.375Z,17.2
2023-05-23T05:45:02.372Z,17.2
2023-05-23T05:46:02.479Z,17.2
2023-05-23T05:47:02.385Z,17.2
2023-05-23T05:48:02.446Z,17.3
2023-05-23T05:49:02.413Z,17.3
2023-05-23T05:50:02.408Z,17.3
2023-05-23T05:51:02.393Z,17.4
2023-05-23T05:52:02.390Z,17.4
2023-05-23T05:53:02.426Z,17.4
2023-05-23T05:54:02.418Z,17.4
2023-05-23T05:55:02.435Z,17.5
2023-05-23T05:56:02.400Z,17.6
2023-05-23T05:57:02.408Z,17.6
2023-05-23T05:58:02.414Z,17.6
2023-05-23T05:59:02.402Z,17.6
2023-05-23T06:00:02.414Z,17.7
2023-05-23T06:01:02.405Z,17.8
2023-05-23T06:02:02.423Z,17.8
2023-05-23T06:03:02.511Z,17.8
2023-05-23T06:04:02.688Z,17.8
2023-05-23T06:05:02.468Z,17.9
2023-05-23T06:06:02.443Z,17.9
2023-05-23T06:07:02.437Z,17.9
2023-05-23T06:08:02.409Z,18
2023-05-23T06:09:02.426Z,18.1
2023-05-23T06:10:02.431Z,18.1
2023-05-23T06:11:02.413Z,18.1
2023-05-23T06:12:02.414Z,18.1
2023-05-23T06:13:02.424Z,18.1
2023-05-23T06:14:02.424Z,18.1
2023-05-23T06:15:02.444Z,18.1
2023-05-23T06:16:02.573Z,18.1
2023-05-23T06:17:02.470Z,18.2
2023-05-23T06:18:02.547Z,18.2
2023-05-23T06:19:02.492Z,18.2
2023-05-23T06:20:02.474Z,18.2
2023-05-23T06:21:02.471Z,18.2
2023-05-23T06:22:02.417Z,18.2
2023-05-23T06:23:02.464Z,18.3
2023-05-23T06:24:02.504Z,18.3
2023-05-23T06:25:02.465Z,18.4
2023-05-23T06:26:02.515Z,18.4
2023-05-23T06:27:02.496Z,18.4
2023-05-23T06:28:02.466Z,18.5
2023-05-23T06:29:02.474Z,18.5
2023-05-23T06:30:02.451Z,18.6
2023-05-23T06:31:02.487Z,18.6
2023-05-23T06:32:02.561Z,18.6
2023-05-23T06:33:02.493Z,18.6
2023-05-23T06:34:02.499Z,18.7
2023-05-23T06:35:02.495Z,18.7
2023-05-23T06:36:02.480Z,18.7
2023-05-23T06:37:02.516Z,18.7
2023-05-23T06:38:02.464Z,18.8
2023-05-23T06:39:02.510Z,18.8
2023-05-23T06:40:02.518Z,18.8
2023-05-23T06:41:02.445Z,18.9
2023-05-23T06:42:02.494Z,18.9
2023-05-23T06:43:02.505Z,18.9
2023-05-23T06:44:02.579Z,18.9
2023-05-23T06:45:02.542Z,18.9
2023-05-23T06:46:02.529Z,19
2023-05-23T06:47:02.565Z,19
2023-05-23T06:48:02.630Z,19.1
2023-05-23T06:49:14.437Z,19.1
2023-05-23T06:50:02.514Z,19.1
2023-05-23T06:51:02.502Z,19.2
2023-05-23T06:52:02.577Z,19.2
2023-05-23T06:53:02.514Z,19.2
2023-05-23T06:54:02.501Z,19.3
2023-05-23T06:55:02.521Z,19.3
2023-05-23T06:56:02.553Z,19.4
2023-05-23T06:57:02.487Z,19.4
2023-05-23T06:58:02.526Z,19.4
2023-05-23T06:59:02.466Z,19.5
2023-05-23T07:00:02.470Z,19.6
2023-05-23T07:01:02.576Z,19.6
2023-05-23T07:02:02.491Z,19.7
2023-05-23T07:03:02.520Z,19.8
2023-05-23T07:04:02.484Z,19.8
2023-05-23T07:05:02.582Z,19.8
2023-05-23T07:06:02.507Z,19.8
2023-05-23T07:07:02.496Z,19.9
2023-05-23T07:08:02.491Z,19.9
2023-05-23T07:09:02.481Z,20
2023-05-23T07:10:02.499Z,20
2023-05-23T07:11:02.482Z,20.1
2023-05-23T07:12:02.487Z,20.1
2023-05-23T07:13:02.498Z,20.2
2023-05-23T07:14:02.497Z,20.2
2023-05-23T07:15:02.493Z,20.3
2023-05-23T07:16:02.490Z,20.3
2023-05-23T07:17:02.555Z,20.4
2023-05-23T07:18:02.577Z,20.4
2023-05-23T07:19:02.494Z,20.5
2023-05-23T07:20:02.514Z,20.4
2023-05-23T07:21:02.497Z,20.4
2023-05-23T07:22:02.501Z,20.5
2023-05-23T07:23:02.486Z,20.5
2023-05-23T07:24:02.485Z,20.5
2023-05-23T07:25:02.555Z,20.5
2023-05-23T07:26:03.306Z,20.5
2023-05-23T07:27:02.490Z,20.5
2023-05-23T07:28:02.488Z,20.5
2023-05-23T07:29:02.496Z,20.4
2023-05-23T07:30:02.534Z,20.4
2023-05-23T07:31:02.540Z,20.4
2023-05-23T07:32:02.496Z,20.4
2023-05-23T07:33:02.556Z,20.4
2023-05-23T07:34:02.587Z,20.4
2023-05-23T07:35:00.409Z,20.4
2023-05-23T07:36:00.432Z,20.4
2023-05-23T07:37:00.431Z,20.4
2023-05-23T07:38:00.403Z,20.4
2023-05-23T07:39:00.404Z,20.4
2023-05-23T07:40:00.418Z,20.4
2023-05-23T07:41:10.894Z,20.3
2023-05-23T07:42:00.406Z,20.3
2023-05-23T07:43:00.439Z,20.2
2023-05-23T07:44:00.431Z,20.2
2023-05-23T07:45:00.410Z,20.2
2023-05-23T07:46:00.490Z,20.2
2023-05-23T07:47:00.595Z,20.2
2023-05-23T07:48:00.478Z,20.2
2023-05-23T07:49:00.431Z,20.3
2023-05-23T07:50:00.430Z,20.3
2023-05-23T07:51:00.439Z,20.4
2023-05-23T07:52:00.438Z,20.4
2023-05-23T07:53:00.408Z,20.5
2023-05-23T07:54:00.402Z,20.5
2023-05-23T07:55:00.442Z,20.6
2023-05-23T07:56:00.411Z,20.6
2023-05-23T07:57:00.410Z,20.7
2023-05-23T07:58:00.424Z,20.8
2023-05-23T07:59:00.427Z,20.8
2023-05-23T08:00:00.440Z,20.8
2023-05-23T08:01:00.410Z,20.8
2023-05-23T08:02:00.456Z,20.8
2023-05-23T08:03:00.461Z,20.8
2023-05-23T08:04:00.636Z,20.8
2023-05-23T08:05:00.465Z,20.8
2023-05-23T08:06:00.443Z,20.8
2023-05-23T08:07:05.511Z,20.8
2023-05-23T08:08:00.444Z,20.8
2023-05-23T08:09:00.428Z,20.9
2023-05-23T08:10:00.487Z,20.9
2023-05-23T08:11:00.444Z,21
2023-05-23T08:12:00.697Z,21.1
2023-05-23T08:13:00.485Z,21.1
2023-05-23T08:14:01.574Z,21.2
2023-05-23T08:15:00.460Z,21.3
2023-05-23T08:16:00.522Z,21.4
2023-05-23T08:17:00.580Z,21.4
2023-05-23T08:18:00.516Z,21.5
2023-05-23T08:19:00.616Z,21.5
2023-05-23T08:20:00.458Z,21.5
2023-05-23T08:21:00.459Z,21.6
2023-05-23T08:22:00.454Z,21.6
2023-05-23T08:23:00.462Z,21.6
2023-05-23T08:24:00.467Z,21.6
2023-05-23T08:25:00.462Z,21.7
2023-05-23T08:26:00.462Z,21.7
2023-05-23T08:27:00.450Z,21.8
2023-05-23T08:28:00.471Z,21.8
2023-05-23T08:29:00.459Z,21.9
2023-05-23T08:30:00.546Z,21.9
2023-05-23T08:31:00.449Z,22
2023-05-23T08:32:00.501Z,22
2023-05-23T08:33:00.503Z,22
2023-05-23T08:34:00.488Z,22.1
2023-05-23T08:35:00.497Z,22.1
2023-05-23T08:36:00.460Z,22.2
2023-05-23T08:37:00.490Z,22.2
2023-05-23T08:38:01.486Z,22.3
2023-05-23T08:39:00.479Z,22.4
2023-05-23T08:40:00.526Z,22.4
2023-05-23T08:41:00.479Z,22.4
2023-05-23T08:42:00.463Z,22.6
2023-05-23T08:43:00.504Z,22.6
2023-05-23T08:44:00.469Z,22.7
2023-05-23T08:45:00.469Z,22.8
2023-05-23T08:46:00.522Z,22.9
2023-05-23T08:47:00.492Z,23
2023-05-23T08:48:00.553Z,23.1
2023-05-23T08:49:00.475Z,23.1
2023-05-23T08:50:00.508Z,23.1
2023-05-23T08:51:00.499Z,23.1
2023-05-23T08:52:00.507Z,23.1
2023-05-23T08:53:00.471Z,23
2023-05-23T08:54:00.480Z,23.1
2023-05-23T08:55:00.474Z,23
2023-05-23T08:56:00.476Z,23
2023-05-23T08:57:00.486Z,22.9
2023-05-23T08:58:00.692Z,22.8
2023-05-23T08:59:00.484Z,22.7
2023-05-23T09:00:00.507Z,22.6
2023-05-23T09:01:00.483Z,22.5
2023-05-23T09:02:00.711Z,22.4
2023-05-23T09:03:00.524Z,22.3
2023-05-23T09:04:00.506Z,22.2
2023-05-23T09:05:00.552Z,22.2
2023-05-23T09:06:00.541Z,22.2
2023-05-23T09:07:00.515Z,22.3
2023-05-23T09:08:00.498Z,22.2
2023-05-23T09:09:00.513Z,22.3
2023-05-23T09:10:00.529Z,22.2
2023-05-23T09:11:00.487Z,22.2
2023-05-23T09:12:00.515Z,22.2
2023-05-23T09:13:00.771Z,22.3
2023-05-23T09:14:00.504Z,22.4
2023-05-23T09:15:00.497Z,22.4
2023-05-23T09:16:00.581Z,22.6
2023-05-23T09:17:02.485Z,22.7
2023-05-23T09:18:00.532Z,22.8
2023-05-23T09:19:00.536Z,23
2023-05-23T09:20:00.531Z,23.2
2023-05-23T09:21:00.504Z,23.4
2023-05-23T09:22:00.543Z,23.6
2023-05-23T09:23:03.577Z,23.7
2023-05-23T09:24:00.517Z,23.8
2023-05-23T09:25:00.635Z,23.7
2023-05-23T09:26:00.527Z,23.8
2023-05-23T09:27:00.516Z,23.8
2023-05-23T09:28:00.515Z,23.8
2023-05-23T09:29:00.517Z,23.8
2023-05-23T09:30:00.921Z,23.6
2023-05-23T09:31:00.523Z,23.6
2023-05-23T09:32:00.611Z,23.5
2023-05-23T09:33:03.896Z,23.4
2023-05-23T09:34:00.553Z,23.2
2023-05-23T09:35:00.564Z,23.2
2023-05-23T09:36:00.546Z,23.1
2023-05-23T09:37:00.535Z,23.1
2023-05-23T09:38:00.534Z,23.1
2023-05-23T09:39:02.714Z,22.9
2023-05-23T09:40:00.790Z,22.8
2023-05-23T09:41:00.531Z,22.8
2023-05-23T09:42:00.555Z,22.7
2023-05-23T09:43:00.560Z,22.7
2023-05-23T09:44:00.579Z,22.7
2023-05-23T09:45:03.198Z,22.7
2023-05-23T09:46:00.541Z,22.6
2023-05-23T09:47:00.593Z,22.6
2023-05-23T09:48:00.622Z,22.6
2023-05-23T09:49:00.547Z,22.6
2023-05-23T09:50:00.567Z,22.6
2023-05-23T09:51:02.890Z,22.6
2023-05-23T09:52:00.559Z,22.6
2023-05-23T09:53:00.535Z,22.5
2023-05-23T09:54:00.565Z,22.4
2023-05-23T09:55:00.588Z,22.4
2023-05-23T09:56:00.558Z,22.4
2023-05-23T09:57:00.566Z,22.3
2023-05-23T09:58:00.559Z,22.2
2023-05-23T09:59:00.544Z,22.2
2023-05-23T10:00:00.637Z,22.1
2023-05-23T10:01:00.593Z,22.1
2023-05-23T10:02:00.548Z,22
2023-05-23T10:03:00.572Z,21.9
2023-05-23T10:04:00.771Z,21.9
2023-05-23T10:05:00.571Z,21.9
2023-05-23T10:06:00.559Z,21.9
2023-05-23T10:07:00.584Z,21.9
2023-05-23T10:08:00.553Z,21.9
2023-05-23T10:09:00.561Z,21.8
2023-05-23T10:10:00.724Z,21.8
2023-05-23T10:11:00.559Z,21.8
2023-05-23T10:12:00.560Z,21.8
2023-05-23T10:13:00.558Z,21.8
2023-05-23T10:14:00.557Z,21.8
2023-05-23T10:15:00.606Z,21.8
2023-05-23T10:16:00.568Z,21.8
2023-05-23T10:17:00.573Z,21.8
2023-05-23T10:18:00.622Z,21.8
2023-05-23T10:19:00.597Z,21.9
2023-05-23T10:20:00.626Z,21.9
2023-05-23T10:21:00.590Z,21.9
2023-05-23T10:22:00.577Z,22.1
2023-05-23T10:23:00.565Z,22.2
2023-05-23T10:24:00.585Z,22.4
2023-05-23T10:25:00.599Z,22.6
2023-05-23T10:26:00.575Z,22.6
2023-05-23T10:27:00.564Z,22.8
2023-05-23T10:28:03.915Z,22.8
2023-05-23T10:29:00.597Z,22.9
2023-05-23T10:30:00.620Z,22.9
2023-05-23T10:31:00.698Z,22.9
2023-05-23T10:32:00.593Z,23.1
2023-05-23T10:33:00.649Z,23.2
2023-05-23T10:34:00.632Z,23.3
2023-05-23T10:35:00.611Z,23.4
2023-05-23T10:36:00.632Z,23.6
2023-05-23T10:37:00.628Z,23.7
2023-05-23T10:38:00.574Z,23.8
2023-05-23T10:39:00.625Z,23.8
2023-05-23T10:40:00.725Z,23.9
2023-05-23T10:41:00.618Z,24.1
2023-05-23T10:42:00.649Z,24.3
2023-05-23T10:43:00.626Z,24.5
2023-05-23T10:44:00.660Z,24.6
2023-05-23T10:45:01.481Z,24.7
2023-05-23T10:46:00.739Z,24.6
2023-05-23T10:47:00.635Z,24.6
2023-05-23T10:48:00.638Z,24.4
2023-05-23T10:49:00.666Z,24.4
2023-05-23T10:50:00.766Z,24.3
2023-05-23T10:51:00.642Z,24.3
2023-05-23T10:52:00.628Z,24.4
2023-05-23T10:53:00.608Z,24.5
2023-05-23T10:54:00.627Z,24.6
2023-05-23T10:55:00.859Z,24.7
2023-05-23T10:56:00.633Z,24.8
2023-05-23T10:57:00.637Z,24.8
2023-05-23T10:58:00.626Z,24.8
2023-05-23T10:59:00.629Z,24.8
2023-05-23T11:00:00.880Z,24.8
2023-05-23T11:01:00.707Z,24.8
2023-05-23T11:02:00.659Z,24.8
2023-05-23T11:03:00.885Z,24.8
2023-05-23T11:04:00.929Z,24.7
2023-05-23T11:05:00.785Z,24.7
2023-05-23T11:06:00.629Z,24.6
2023-05-23T11:07:00.648Z,24.6
2023-05-23T11:08:00.626Z,24.8
2023-05-23T11:09:00.634Z,24.8
2023-05-23T11:10:00.676Z,24.8
2023-05-23T11:11:00.627Z,24.8
2023-05-23T11:12:00.620Z,24.7
2023-05-23T11:13:00.622Z,24.6
2023-05-23T11:14:00.925Z,24.5
2023-05-23T11:15:00.682Z,24.4
2023-05-23T11:16:00.648Z,24.3
2023-05-23T11:17:00.764Z,24.4
2023-05-23T11:18:00.642Z,24.2
2023-05-23T11:19:00.699Z,24.2
2023-05-23T11:20:00.726Z,24.2
2023-05-23T11:21:00.637Z,24.4
2023-05-23T11:22:00.724Z,24.6
2023-05-23T11:23:00.637Z,24.8
2023-05-23T11:24:00.653Z,25
2023-05-23T11:25:00.644Z,25.2
2023-05-23T11:26:00.651Z,25.3
2023-05-23T11:27:00.644Z,25.5
2023-05-23T11:28:00.652Z,25.7
2023-05-23T11:29:00.668Z,25.8
2023-05-23T11:30:00.712Z,25.8
2023-05-23T11:31:00.706Z,25.8
2023-05-23T11:32:00.715Z,25.7
2023-05-23T11:33:00.753Z,25.6
2023-05-23T11:34:00.688Z,25.4
2023-05-23T11:35:00.655Z,25.2
2023-05-23T11:36:00.694Z,25.2
2023-05-23T11:37:00.650Z,25.1
2023-05-23T11:38:00.652Z,24.9
2023-05-23T11:39:00.677Z,24.8
2023-05-23T11:40:00.680Z,24.7
2023-05-23T11:41:00.667Z,24.6
2023-05-23T11:42:00.658Z,24.6
2023-05-23T11:43:00.696Z,24.6
2023-05-23T11:44:00.696Z,24.5
2023-05-23T11:45:00.711Z,24.4
2023-05-23T11:46:00.703Z,24.4
2023-05-23T11:47:00.720Z,24.2
2023-05-23T11:48:00.671Z,24.2
2023-05-23T11:49:00.693Z,24.2
2023-05-23T11:50:00.722Z,24.3
2023-05-23T11:51:00.697Z,24.4
2023-05-23T11:52:00.694Z,24.3
2023-05-23T11:53:00.696Z,24.3
2023-05-23T11:54:00.686Z,24.2
2023-05-23T11:55:03.690Z,24.1
2023-05-23T11:56:00.862Z,24
2023-05-23T11:57:00.671Z,23.9
2023-05-23T11:58:00.676Z,23.9
2023-05-23T11:59:00.734Z,23.8
2023-05-23T12:00:00.746Z,23.6
2023-05-23T12:01:00.682Z,23.5
2023-05-23T12:02:00.750Z,23.4
2023-05-23T12:03:00.798Z,23.4
2023-05-23T12:04:00.726Z,23.3
2023-05-23T12:05:00.833Z,23.2
2023-05-23T12:06:00.699Z,23.2
2023-05-23T12:07:00.712Z,23.1
2023-05-23T12:08:00.707Z,23
2023-05-23T12:09:00.675Z,22.9
2023-05-23T12:10:00.827Z,22.8
2023-05-23T12:11:00.680Z,22.7
2023-05-23T12:12:00.688Z,22.6
2023-05-23T12:13:00.706Z,22.4
2023-05-23T12:14:00.733Z,22.4
2023-05-23T12:15:00.709Z,22.4
2023-05-23T12:16:00.801Z,22.4
2023-05-23T12:17:00.702Z,22.4
2023-05-23T12:18:00.841Z,22.4
2023-05-23T12:19:00.817Z,22.4
2023-05-23T12:20:00.707Z,22.3
2023-05-23T12:21:00.726Z,22.3
2023-05-23T12:22:00.687Z,22.2
2023-05-23T12:23:00.692Z,22.2
2023-05-23T12:24:00.686Z,22.2
2023-05-23T12:25:00.699Z,22.1
2023-05-23T12:26:00.687Z,22
2023-05-23T12:27:00.700Z,21.9
2023-05-23T12:28:00.740Z,21.8
2023-05-23T12:29:00.704Z,21.8
2023-05-23T12:30:00.730Z,21.8
2023-05-23T12:31:00.777Z,21.8
2023-05-23T12:32:00.701Z,21.8
2023-05-23T12:33:00.761Z,21.8
2023-05-23T12:34:00.708Z,21.8
2023-05-23T12:35:00.761Z,21.8
2023-05-23T12:36:00.708Z,21.8
2023-05-23T12:37:14.870Z,21.7
2023-05-23T12:38:00.706Z,21.7
2023-05-23T12:39:00.724Z,21.6
2023-05-23T12:40:00.759Z,21.6
2023-05-23T12:41:00.709Z,21.6
2023-05-23T12:42:00.735Z,21.6
2023-05-23T12:43:00.726Z,21.6
2023-05-23T12:44:00.722Z,21.6
2023-05-23T12:45:00.718Z,21.6
2023-05-23T12:46:00.725Z,21.6
2023-05-23T12:47:00.876Z,21.6
2023-05-23T12:48:00.766Z,21.7
2023-05-23T12:49:00.751Z,21.7
2023-05-23T12:50:00.762Z,21.7
2023-05-23T12:51:00.742Z,21.8
2023-05-23T12:52:00.743Z,21.8
2023-05-23T12:53:00.750Z,21.8
2023-05-23T12:54:00.725Z,21.8
2023-05-23T12:55:00.735Z,21.8
2023-05-23T12:56:00.729Z,21.9
2023-05-23T12:57:00.745Z,21.9
2023-05-23T12:58:00.766Z,21.9
2023-05-23T12:59:00.766Z,21.9
2023-05-23T13:00:00.750Z,21.9
2023-05-23T13:01:00.764Z,21.9
2023-05-23T13:02:00.787Z,21.9
2023-05-23T13:03:00.774Z,21.9
2023-05-23T13:04:00.827Z,21.9
2023-05-23T13:05:00.813Z,21.9
2023-05-23T13:06:00.792Z,21.9
2023-05-23T13:07:00.773Z,21.9
2023-05-23T13:08:00.771Z,21.8
2023-05-23T13:09:00.749Z,21.8
2023-05-23T13:10:00.824Z,21.8
2023-05-23T13:11:00.773Z,21.8
2023-05-23T13:12:00.748Z,21.9
2023-05-23T13:13:00.771Z,21.9
2023-05-23T13:14:00.771Z,21.9
2023-05-23T13:15:00.747Z,22
2023-05-23T13:16:00.797Z,22.1
2023-05-23T13:17:01.100Z,22.1
2023-05-23T13:18:00.808Z,22.1
2023-05-23T13:19:00.901Z,22.1
2023-05-23T13:20:00.762Z,22.2